Clarkridge, Arkansas
Current Conditions -  °F | °C
As of 10:53 PM on Friday 19 Dec 2014 (Local Time) from KBPK Reporting Station
Haze Haze  
Wind Chill: 32°   Ceiling: 700
Heat Index: 36°   Visibility: 4mi
Dew Point: 35°   Wind: 5mph
Humidity: 97%   Direction: 120°ESE
Pressure: 30.23"   Gusts: NA
Location:  36.48°N, 92.35°W
Report Text: KBPK 200453Z AUTO 12004KT 4SM BR BKN007 OVC020 02/02 A3023 RMK AO2 RAE16 CIG 004V009 SLP240 P0000 T00220017
Loading
Personal Weather Stations






























Interactive Weather Map New forecast layout! Learn more

10-Day Weather Forecast

Advertisements
Track Severe Weather on mobile